sensor_id;sensor_type;location;lat;lon;timestamp;P1;durP1;ratioP1;P2;durP2;ratioP2
33148;SDS011;19506;51.040;3.856;2023-06-26T00:01:57;6.75;;;4.00;;
33148;SDS011;19506;51.040;3.856;2023-06-26T00:04:23;6.55;;;4.43;;
33148;SDS011;19506;51.040;3.856;2023-06-26T00:06:48;5.18;;;3.60;;
33148;SDS011;19506;51.040;3.856;2023-06-26T00:09:14;6.18;;;3.92;;
33148;SDS011;19506;51.040;3.856;2023-06-26T00:11:40;6.53;;;4.00;;
33148;SDS011;19506;51.040;3.856;2023-06-26T00:14:05;7.20;;;3.72;;
33148;SDS011;19506;51.040;3.856;2023-06-26T00:16:31;5.78;;;3.83;;
33148;SDS011;19506;51.040;3.856;2023-06-26T00:18:57;5.50;;;3.92;;
33148;SDS011;19506;51.040;3.856;2023-06-26T00:21:26;7.60;;;3.72;;
33148;SDS011;19506;51.040;3.856;2023-06-26T00:23:52;5.07;;;3.83;;
33148;SDS011;19506;51.040;3.856;2023-06-26T00:26:18;6.05;;;3.83;;
33148;SDS011;19506;51.040;3.856;2023-06-26T00:28:43;5.43;;;3.67;;
33148;SDS011;19506;51.040;3.856;2023-06-26T00:31:09;6.35;;;4.15;;
33148;SDS011;19506;51.040;3.856;2023-06-26T00:33:34;6.68;;;4.15;;
33148;SDS011;19506;51.040;3.856;2023-06-26T00:36:00;4.90;;;3.42;;
33148;SDS011;19506;51.040;3.856;2023-06-26T00:38:26;5.30;;;3.92;;
33148;SDS011;19506;51.040;3.856;2023-06-26T00:40:51;5.88;;;3.78;;
33148;SDS011;19506;51.040;3.856;2023-06-26T00:43:17;6.07;;;3.85;;
33148;SDS011;19506;51.040;3.856;2023-06-26T00:45:43;6.93;;;3.45;;
33148;SDS011;19506;51.040;3.856;2023-06-26T00:48:09;5.93;;;4.05;;
33148;SDS011;19506;51.040;3.856;2023-06-26T00:50:37;5.18;;;3.97;;
33148;SDS011;19506;51.040;3.856;2023-06-26T00:53:03;4.65;;;3.58;;
33148;SDS011;19506;51.040;3.856;2023-06-26T00:55:29;5.20;;;3.83;;
33148;SDS011;19506;51.040;3.856;2023-06-26T00:57:55;4.45;;;3.47;;
33148;SDS011;19506;51.040;3.856;2023-06-26T01:00:21;6.00;;;3.53;;
33148;SDS011;19506;51.040;3.856;2023-06-26T01:02:47;4.88;;;3.80;;
33148;SDS011;19506;51.040;3.856;2023-06-26T01:05:13;5.18;;;3.83;;
33148;SDS011;19506;51.040;3.856;2023-06-26T01:07:45;5.90;;;3.45;;
33148;SDS011;19506;51.040;3.856;2023-06-26T01:10:15;5.57;;;4.00;;
33148;SDS011;19506;51.040;3.856;2023-06-26T01:12:41;5.97;;;3.95;;
33148;SDS011;19506;51.040;3.856;2023-06-26T01:15:07;5.72;;;3.85;;
33148;SDS011;19506;51.040;3.856;2023-06-26T01:17:33;5.57;;;3.80;;
33148;SDS011;19506;51.040;3.856;2023-06-26T01:20:00;4.63;;;3.38;;
33148;SDS011;19506;51.040;3.856;2023-06-26T01:22:34;4.95;;;3.58;;
33148;SDS011;19506;51.040;3.856;2023-06-26T01:25:12;6.15;;;4.35;;
33148;SDS011;19506;51.040;3.856;2023-06-26T01:28:03;5.60;;;3.22;;
33148;SDS011;19506;51.040;3.856;2023-06-26T01:30:34;5.95;;;3.70;;
33148;SDS011;19506;51.040;3.856;2023-06-26T01:33:02;5.72;;;4.25;;
33148;SDS011;19506;51.040;3.856;2023-06-26T01:35:29;4.50;;;3.40;;
33148;SDS011;19506;51.040;3.856;2023-06-26T01:38:10;4.80;;;3.92;;
33148;SDS011;19506;51.040;3.856;2023-06-26T01:40:39;4.68;;;3.50;;
33148;SDS011;19506;51.040;3.856;2023-06-26T01:43:06;4.47;;;3.55;;
33148;SDS011;19506;51.040;3.856;2023-06-26T01:45:36;6.43;;;3.80;;
33148;SDS011;19506;51.040;3.856;2023-06-26T01:48:03;3.45;;;3.10;;
33148;SDS011;19506;51.040;3.856;2023-06-26T01:50:33;4.68;;;3.17;;
33148;SDS011;19506;51.040;3.856;2023-06-26T01:53:02;3.90;;;3.25;;
33148;SDS011;19506;51.040;3.856;2023-06-26T01:55:46;3.65;;;3.35;;
33148;SDS011;19506;51.040;3.856;2023-06-26T01:58:18;4.65;;;3.22;;
33148;SDS011;19506;51.040;3.856;2023-06-26T02:00:47;4.63;;;3.28;;
33148;SDS011;19506;51.040;3.856;2023-06-26T02:03:13;5.00;;;3.40;;
33148;SDS011;19506;51.040;3.856;2023-06-26T02:05:39;5.00;;;3.45;;
33148;SDS011;19506;51.040;3.856;2023-06-26T02:08:04;4.10;;;3.42;;
33148;SDS011;19506;51.040;3.856;2023-06-26T02:10:30;4.10;;;3.50;;
33148;SDS011;19506;51.040;3.856;2023-06-26T02:12:56;4.57;;;3.20;;
33148;SDS011;19506;51.040;3.856;2023-06-26T02:15:22;7.03;;;3.45;;
33148;SDS011;19506;51.040;3.856;2023-06-26T02:17:48;3.97;;;3.30;;
33148;SDS011;19506;51.040;3.856;2023-06-26T02:20:14;5.40;;;3.90;;
33148;SDS011;19506;51.040;3.856;2023-06-26T02:22:40;4.80;;;3.20;;
33148;SDS011;19506;51.040;3.856;2023-06-26T02:25:06;5.40;;;3.85;;
33148;SDS011;19506;51.040;3.856;2023-06-26T02:27:32;5.43;;;2.97;;
33148;SDS011;19506;51.040;3.856;2023-06-26T02:29:57;5.20;;;3.78;;
33148;SDS011;19506;51.040;3.856;2023-06-26T02:32:23;4.68;;;3.40;;
33148;SDS011;19506;51.040;3.856;2023-06-26T02:34:49;3.95;;;2.95;;
33148;SDS011;19506;51.040;3.856;2023-06-26T02:37:16;3.47;;;2.97;;
33148;SDS011;19506;51.040;3.856;2023-06-26T02:39:42;4.75;;;3.75;;
33148;SDS011;19506;51.040;3.856;2023-06-26T02:42:08;4.72;;;3.50;;
33148;SDS011;19506;51.040;3.856;2023-06-26T02:44:34;4.03;;;3.28;;
33148;SDS011;19506;51.040;3.856;2023-06-26T02:46:59;5.28;;;3.03;;
33148;SDS011;19506;51.040;3.856;2023-06-26T02:49:25;4.05;;;3.00;;
33148;SDS011;19506;51.040;3.856;2023-06-26T02:51:51;5.25;;;3.50;;
33148;SDS011;19506;51.040;3.856;2023-06-26T02:54:16;3.58;;;3.28;;
33148;SDS011;19506;51.040;3.856;2023-06-26T02:56:42;4.28;;;3.10;;
33148;SDS011;19506;51.040;3.856;2023-06-26T02:59:08;5.22;;;3.20;;
33148;SDS011;19506;51.040;3.856;2023-06-26T03:01:33;3.83;;;3.05;;
33148;SDS011;19506;51.040;3.856;2023-06-26T03:03:59;7.15;;;3.20;;
33148;SDS011;19506;51.040;3.856;2023-06-26T03:06:26;3.92;;;3.20;;
33148;SDS011;19506;51.040;3.856;2023-06-26T03:08:52;5.10;;;2.88;;
33148;SDS011;19506;51.040;3.856;2023-06-26T03:11:18;3.00;;;2.38;;
33148;SDS011;19506;51.040;3.856;2023-06-26T03:13:44;4.78;;;3.28;;
33148;SDS011;19506;51.040;3.856;2023-06-26T03:16:10;5.03;;;3.13;;
33148;SDS011;19506;51.040;3.856;2023-06-26T03:18:35;3.30;;;3.03;;
33148;SDS011;19506;51.040;3.856;2023-06-26T03:21:01;3.80;;;3.08;;
33148;SDS011;19506;51.040;3.856;2023-06-26T03:23:27;4.57;;;3.13;;
33148;SDS011;19506;51.040;3.856;2023-06-26T03:25:53;6.63;;;3.28;;
33148;SDS011;19506;51.040;3.856;2023-06-26T03:28:19;3.55;;;2.78;;
33148;SDS011;19506;51.040;3.856;2023-06-26T03:30:44;3.92;;;2.85;;
33148;SDS011;19506;51.040;3.856;2023-06-26T03:33:10;3.63;;;2.90;;
33148;SDS011;19506;51.040;3.856;2023-06-26T03:35:36;6.28;;;3.22;;
33148;SDS011;19506;51.040;3.856;2023-06-26T03:38:03;3.78;;;3.30;;
33148;SDS011;19506;51.040;3.856;2023-06-26T03:40:29;4.78;;;3.17;;
33148;SDS011;19506;51.040;3.856;2023-06-26T03:42:55;7.28;;;3.28;;
33148;SDS011;19506;51.040;3.856;2023-06-26T03:45:20;3.30;;;2.65;;
33148;SDS011;19506;51.040;3.856;2023-06-26T03:47:46;5.93;;;3.33;;
33148;SDS011;19506;51.040;3.856;2023-06-26T03:50:14;4.70;;;3.05;;
33148;SDS011;19506;51.040;3.856;2023-06-26T03:52:43;3.25;;;2.78;;
33148;SDS011;19506;51.040;3.856;2023-06-26T03:55:09;5.57;;;3.25;;
33148;SDS011;19506;51.040;3.856;2023-06-26T03:57:35;4.72;;;2.90;;
33148;SDS011;19506;51.040;3.856;2023-06-26T04:00:00;3.67;;;2.90;;
33148;SDS011;19506;51.040;3.856;2023-06-26T04:02:30;3.72;;;3.20;;
33148;SDS011;19506;51.040;3.856;2023-06-26T04:04:56;4.82;;;3.47;;
33148;SDS011;19506;51.040;3.856;2023-06-26T04:07:21;3.45;;;3.00;;
33148;SDS011;19506;51.040;3.856;2023-06-26T04:09:47;4.10;;;3.20;;
33148;SDS011;19506;51.040;3.856;2023-06-26T04:12:13;3.13;;;2.80;;
33148;SDS011;19506;51.040;3.856;2023-06-26T04:14:39;3.78;;;2.92;;
33148;SDS011;19506;51.040;3.856;2023-06-26T04:17:04;3.42;;;2.92;;
33148;SDS011;19506;51.040;3.856;2023-06-26T04:19:30;4.32;;;3.05;;
33148;SDS011;19506;51.040;3.856;2023-06-26T04:21:56;3.63;;;2.92;;
33148;SDS011;19506;51.040;3.856;2023-06-26T04:24:22;4.70;;;3.03;;
33148;SDS011;19506;51.040;3.856;2023-06-26T04:26:48;3.83;;;2.97;;
33148;SDS011;19506;51.040;3.856;2023-06-26T04:29:13;3.22;;;2.72;;
33148;SDS011;19506;51.040;3.856;2023-06-26T04:31:39;3.35;;;3.05;;
33148;SDS011;19506;51.040;3.856;2023-06-26T04:34:05;3.42;;;3.13;;
33148;SDS011;19506;51.040;3.856;2023-06-26T04:36:30;3.10;;;2.65;;
33148;SDS011;19506;51.040;3.856;2023-06-26T04:38:58;3.47;;;2.70;;
33148;SDS011;19506;51.040;3.856;2023-06-26T04:41:24;4.63;;;3.17;;
33148;SDS011;19506;51.040;3.856;2023-06-26T04:43:50;5.30;;;3.20;;
33148;SDS011;19506;51.040;3.856;2023-06-26T04:46:16;7.13;;;3.55;;
33148;SDS011;19506;51.040;3.856;2023-06-26T04:48:42;9.05;;;3.60;;
33148;SDS011;19506;51.040;3.856;2023-06-26T04:51:09;11.55;;;3.55;;
33148;SDS011;19506;51.040;3.856;2023-06-26T04:53:35;10.68;;;4.65;;
33148;SDS011;19506;51.040;3.856;2023-06-26T04:56:01;9.77;;;3.95;;
33148;SDS011;19506;51.040;3.856;2023-06-26T04:58:27;11.63;;;3.17;;
33148;SDS011;19506;51.040;3.856;2023-06-26T05:00:53;11.20;;;3.35;;
33148;SDS011;19506;51.040;3.856;2023-06-26T05:03:18;14.88;;;4.43;;
33148;SDS011;19506;51.040;3.856;2023-06-26T05:05:45;12.23;;;4.18;;
33148;SDS011;19506;51.040;3.856;2023-06-26T05:08:15;8.68;;;3.33;;
33148;SDS011;19506;51.040;3.856;2023-06-26T05:10:46;13.85;;;3.83;;
33148;SDS011;19506;51.040;3.856;2023-06-26T05:13:12;14.70;;;3.92;;
33148;SDS011;19506;51.040;3.856;2023-06-26T05:15:40;10.13;;;3.05;;
33148;SDS011;19506;51.040;3.856;2023-06-26T05:18:07;11.43;;;3.42;;
33148;SDS011;19506;51.040;3.856;2023-06-26T05:20:33;12.82;;;3.42;;
33148;SDS011;19506;51.040;3.856;2023-06-26T05:23:01;13.43;;;2.97;;
33148;SDS011;19506;51.040;3.856;2023-06-26T05:25:28;10.10;;;3.35;;
33148;SDS011;19506;51.040;3.856;2023-06-26T05:27:55;7.78;;;2.63;;
33148;SDS011;19506;51.040;3.856;2023-06-26T05:30:24;11.13;;;3.53;;
33148;SDS011;19506;51.040;3.856;2023-06-26T05:32:51;9.02;;;2.60;;
33148;SDS011;19506;51.040;3.856;2023-06-26T05:35:18;11.07;;;3.15;;
33148;SDS011;19506;51.040;3.856;2023-06-26T05:37:45;12.35;;;2.60;;
33148;SDS011;19506;51.040;3.856;2023-06-26T05:40:14;14.35;;;3.22;;
33148;SDS011;19506;51.040;3.856;2023-06-26T05:42:40;11.50;;;2.90;;
33148;SDS011;19506;51.040;3.856;2023-06-26T05:45:06;7.28;;;2.30;;
33148;SDS011;19506;51.040;3.856;2023-06-26T05:47:32;10.93;;;3.03;;
33148;SDS011;19506;51.040;3.856;2023-06-26T05:49:58;8.90;;;3.00;;
33148;SDS011;19506;51.040;3.856;2023-06-26T05:52:24;8.02;;;2.88;;
33148;SDS011;19506;51.040;3.856;2023-06-26T05:54:50;10.52;;;2.70;;
33148;SDS011;19506;51.040;3.856;2023-06-26T05:57:16;8.60;;;2.60;;
33148;SDS011;19506;51.040;3.856;2023-06-26T05:59:42;7.22;;;2.47;;
33148;SDS011;19506;51.040;3.856;2023-06-26T06:02:08;7.05;;;2.40;;
33148;SDS011;19506;51.040;3.856;2023-06-26T06:04:34;6.32;;;2.33;;
33148;SDS011;19506;51.040;3.856;2023-06-26T06:07:02;8.52;;;2.65;;
33148;SDS011;19506;51.040;3.856;2023-06-26T06:09:28;11.00;;;2.47;;
33148;SDS011;19506;51.040;3.856;2023-06-26T06:11:54;9.88;;;2.63;;
33148;SDS011;19506;51.040;3.856;2023-06-26T06:14:19;8.07;;;2.22;;
33148;SDS011;19506;51.040;3.856;2023-06-26T06:16:45;8.95;;;2.42;;
33148;SDS011;19506;51.040;3.856;2023-06-26T06:19:11;6.45;;;2.30;;
33148;SDS011;19506;51.040;3.856;2023-06-26T06:21:38;6.85;;;2.38;;
33148;SDS011;19506;51.040;3.856;2023-06-26T06:24:04;9.10;;;2.08;;
33148;SDS011;19506;51.040;3.856;2023-06-26T06:26:31;8.07;;;2.15;;
33148;SDS011;19506;51.040;3.856;2023-06-26T06:28:57;7.80;;;2.65;;
33148;SDS011;19506;51.040;3.856;2023-06-26T06:31:23;7.50;;;2.03;;
33148;SDS011;19506;51.040;3.856;2023-06-26T06:33:48;13.45;;;2.60;;
33148;SDS011;19506;51.040;3.856;2023-06-26T06:36:14;5.10;;;1.90;;
33148;SDS011;19506;51.040;3.856;2023-06-26T06:38:42;5.57;;;1.73;;
33148;SDS011;19506;51.040;3.856;2023-06-26T06:41:09;5.03;;;1.85;;
33148;SDS011;19506;51.040;3.856;2023-06-26T06:43:34;6.55;;;2.03;;
33148;SDS011;19506;51.040;3.856;2023-06-26T06:46:01;5.60;;;2.15;;
33148;SDS011;19506;51.040;3.856;2023-06-26T06:48:27;4.13;;;1.80;;
33148;SDS011;19506;51.040;3.856;2023-06-26T06:50:53;10.80;;;2.00;;
33148;SDS011;19506;51.040;3.856;2023-06-26T06:53:18;8.98;;;1.98;;
33148;SDS011;19506;51.040;3.856;2023-06-26T06:55:45;8.20;;;2.38;;
33148;SDS011;19506;51.040;3.856;2023-06-26T06:58:11;5.45;;;1.50;;
33148;SDS011;19506;51.040;3.856;2023-06-26T07:00:37;6.72;;;2.20;;
33148;SDS011;19506;51.040;3.856;2023-06-26T07:03:02;4.93;;;1.60;;
33148;SDS011;19506;51.040;3.856;2023-06-26T07:05:29;9.70;;;1.90;;
33148;SDS011;19506;51.040;3.856;2023-06-26T07:07:54;5.38;;;1.95;;
33148;SDS011;19506;51.040;3.856;2023-06-26T07:10:20;8.48;;;2.22;;
33148;SDS011;19506;51.040;3.856;2023-06-26T07:12:46;10.07;;;2.40;;
33148;SDS011;19506;51.040;3.856;2023-06-26T07:15:12;11.02;;;2.13;;
33148;SDS011;19506;51.040;3.856;2023-06-26T07:17:38;7.07;;;2.33;;
33148;SDS011;19506;51.040;3.856;2023-06-26T07:20:04;5.68;;;1.63;;
33148;SDS011;19506;51.040;3.856;2023-06-26T07:22:35;8.23;;;1.88;;
33148;SDS011;19506;51.040;3.856;2023-06-26T07:25:01;7.88;;;1.85;;
33148;SDS011;19506;51.040;3.856;2023-06-26T07:27:28;5.05;;;1.40;;
33148;SDS011;19506;51.040;3.856;2023-06-26T07:29:54;9.02;;;2.03;;
33148;SDS011;19506;51.040;3.856;2023-06-26T07:32:20;2.22;;;1.45;;
33148;SDS011;19506;51.040;3.856;2023-06-26T07:34:46;6.50;;;1.55;;
33148;SDS011;19506;51.040;3.856;2023-06-26T07:37:11;3.38;;;1.35;;
33148;SDS011;19506;51.040;3.856;2023-06-26T07:39:37;7.40;;;1.63;;
33148;SDS011;19506;51.040;3.856;2023-06-26T07:42:03;3.75;;;1.60;;
33148;SDS011;19506;51.040;3.856;2023-06-26T07:44:28;6.13;;;1.98;;
33148;SDS011;19506;51.040;3.856;2023-06-26T07:46:54;9.68;;;1.75;;
33148;SDS011;19506;51.040;3.856;2023-06-26T07:49:20;4.25;;;2.25;;
33148;SDS011;19506;51.040;3.856;2023-06-26T07:51:45;8.90;;;2.15;;
33148;SDS011;19506;51.040;3.856;2023-06-26T07:54:11;5.32;;;1.38;;
33148;SDS011;19506;51.040;3.856;2023-06-26T07:59:22;7.28;;;1.80;;
33148;SDS011;19506;51.040;3.856;2023-06-26T08:01:50;5.68;;;2.15;;
33148;SDS011;19506;51.040;3.856;2023-06-26T08:04:20;4.07;;;1.35;;
33148;SDS011;19506;51.040;3.856;2023-06-26T08:06:48;5.80;;;1.60;;
33148;SDS011;19506;51.040;3.856;2023-06-26T08:09:15;5.15;;;1.90;;
33148;SDS011;19506;51.040;3.856;2023-06-26T08:11:42;4.18;;;1.58;;
33148;SDS011;19506;51.040;3.856;2023-06-26T08:14:07;3.50;;;1.58;;
33148;SDS011;19506;51.040;3.856;2023-06-26T08:16:33;4.63;;;1.85;;
33148;SDS011;19506;51.040;3.856;2023-06-26T08:18:59;9.40;;;2.15;;
33148;SDS011;19506;51.040;3.856;2023-06-26T08:21:25;4.70;;;1.60;;
33148;SDS011;19506;51.040;3.856;2023-06-26T08:23:50;2.85;;;1.67;;
33148;SDS011;19506;51.040;3.856;2023-06-26T08:26:16;19.55;;;3.78;;
33148;SDS011;19506;51.040;3.856;2023-06-26T08:28:42;20.98;;;4.57;;
33148;SDS011;19506;51.040;3.856;2023-06-26T08:31:07;27.90;;;5.97;;
33148;SDS011;19506;51.040;3.856;2023-06-26T08:33:33;26.60;;;6.15;;
33148;SDS011;19506;51.040;3.856;2023-06-26T08:35:59;28.73;;;6.03;;
33148;SDS011;19506;51.040;3.856;2023-06-26T08:38:24;30.20;;;7.10;;
33148;SDS011;19506;51.040;3.856;2023-06-26T08:40:50;31.52;;;7.25;;
33148;SDS011;19506;51.040;3.856;2023-06-26T08:43:16;31.27;;;6.75;;
33148;SDS011;19506;51.040;3.856;2023-06-26T08:45:41;20.88;;;5.78;;
33148;SDS011;19506;51.040;3.856;2023-06-26T08:48:08;24.52;;;6.38;;
33148;SDS011;19506;51.040;3.856;2023-06-26T08:50:35;21.55;;;4.82;;
33148;SDS011;19506;51.040;3.856;2023-06-26T08:53:08;22.63;;;6.47;;
33148;SDS011;19506;51.040;3.856;2023-06-26T08:55:43;16.65;;;5.10;;
33148;SDS011;19506;51.040;3.856;2023-06-26T08:58:09;24.13;;;5.35;;
33148;SDS011;19506;51.040;3.856;2023-06-26T09:00:37;24.38;;;6.28;;
33148;SDS011;19506;51.040;3.856;2023-06-26T09:03:04;25.58;;;6.05;;
33148;SDS011;19506;51.040;3.856;2023-06-26T09:05:30;21.95;;;6.18;;
33148;SDS011;19506;51.040;3.856;2023-06-26T09:07:57;19.58;;;5.18;;
33148;SDS011;19506;51.040;3.856;2023-06-26T09:10:23;18.33;;;5.40;;
33148;SDS011;19506;51.040;3.856;2023-06-26T09:12:49;23.05;;;6.82;;
33148;SDS011;19506;51.040;3.856;2023-06-26T09:15:15;16.83;;;6.28;;
33148;SDS011;19506;51.040;3.856;2023-06-26T09:17:45;17.67;;;4.95;;
33148;SDS011;19506;51.040;3.856;2023-06-26T09:20:11;20.33;;;6.07;;
33148;SDS011;19506;51.040;3.856;2023-06-26T09:22:40;13.80;;;5.05;;
33148;SDS011;19506;51.040;3.856;2023-06-26T09:25:07;18.60;;;4.38;;
33148;SDS011;19506;51.040;3.856;2023-06-26T09:27:34;19.80;;;5.20;;
33148;SDS011;19506;51.040;3.856;2023-06-26T09:30:01;13.52;;;4.38;;
33148;SDS011;19506;51.040;3.856;2023-06-26T09:32:28;19.65;;;4.97;;
33148;SDS011;19506;51.040;3.856;2023-06-26T09:34:54;19.00;;;4.63;;
33148;SDS011;19506;51.040;3.856;2023-06-26T09:37:21;20.27;;;4.00;;
33148;SDS011;19506;51.040;3.856;2023-06-26T09:39:47;14.18;;;4.55;;
33148;SDS011;19506;51.040;3.856;2023-06-26T09:42:14;10.63;;;4.10;;
33148;SDS011;19506;51.040;3.856;2023-06-26T09:44:47;13.90;;;4.55;;
33148;SDS011;19506;51.040;3.856;2023-06-26T09:47:16;13.02;;;4.57;;
33148;SDS011;19506;51.040;3.856;2023-06-26T09:49:45;19.95;;;4.85;;
33148;SDS011;19506;51.040;3.856;2023-06-26T09:52:14;12.02;;;4.57;;
33148;SDS011;19506;51.040;3.856;2023-06-26T09:54:45;13.40;;;3.40;;
33148;SDS011;19506;51.040;3.856;2023-06-26T09:57:12;10.68;;;3.80;;
33148;SDS011;19506;51.040;3.856;2023-06-26T09:59:39;12.18;;;4.28;;
33148;SDS011;19506;51.040;3.856;2023-06-26T10:02:06;14.65;;;4.03;;
33148;SDS011;19506;51.040;3.856;2023-06-26T10:04:33;11.82;;;3.05;;
33148;SDS011;19506;51.040;3.856;2023-06-26T10:07:06;9.32;;;3.75;;
33148;SDS011;19506;51.040;3.856;2023-06-26T10:09:36;7.25;;;2.65;;
33148;SDS011;19506;51.040;3.856;2023-06-26T10:12:17;8.35;;;2.72;;
33148;SDS011;19506;51.040;3.856;2023-06-26T10:14:51;19.58;;;3.47;;
33148;SDS011;19506;51.040;3.856;2023-06-26T10:17:19;11.25;;;3.28;;
33148;SDS011;19506;51.040;3.856;2023-06-26T10:19:48;14.23;;;3.42;;
33148;SDS011;19506;51.040;3.856;2023-06-26T10:22:17;7.22;;;2.92;;
33148;SDS011;19506;51.040;3.856;2023-06-26T10:24:45;11.48;;;2.92;;
33148;SDS011;19506;51.040;3.856;2023-06-26T10:27:19;9.45;;;3.30;;
33148;SDS011;19506;51.040;3.856;2023-06-26T10:29:47;9.90;;;2.47;;
33148;SDS011;19506;51.040;3.856;2023-06-26T10:32:22;12.07;;;2.80;;
33148;SDS011;19506;51.040;3.856;2023-06-26T10:34:51;10.77;;;2.50;;
33148;SDS011;19506;51.040;3.856;2023-06-26T10:37:17;10.95;;;2.42;;
33148;SDS011;19506;51.040;3.856;2023-06-26T10:42:16;16.60;;;5.72;;
33148;SDS011;19506;51.040;3.856;2023-06-26T10:44:44;28.95;;;8.15;;
33148;SDS011;19506;51.040;3.856;2023-06-26T10:47:12;34.58;;;9.27;;
33148;SDS011;19506;51.040;3.856;2023-06-26T10:49:56;29.75;;;10.80;;
33148;SDS011;19506;51.040;3.856;2023-06-26T10:52:21;27.70;;;9.13;;
33148;SDS011;19506;51.040;3.856;2023-06-26T10:54:47;24.05;;;8.35;;
33148;SDS011;19506;51.040;3.856;2023-06-26T10:57:12;32.28;;;9.40;;
33148;SDS011;19506;51.040;3.856;2023-06-26T10:59:48;27.63;;;9.68;;
33148;SDS011;19506;51.040;3.856;2023-06-26T11:02:47;20.02;;;7.20;;
33148;SDS011;19506;51.040;3.856;2023-06-26T11:05:22;26.85;;;6.25;;
33148;SDS011;19506;51.040;3.856;2023-06-26T11:08:05;21.50;;;6.20;;
33148;SDS011;19506;51.040;3.856;2023-06-26T11:10:50;14.90;;;5.75;;
33148;SDS011;19506;51.040;3.856;2023-06-26T11:13:19;13.33;;;4.10;;
33148;SDS011;19506;51.040;3.856;2023-06-26T11:15:49;14.60;;;5.47;;
33148;SDS011;19506;51.040;3.856;2023-06-26T11:18:16;15.57;;;4.93;;
33148;SDS011;19506;51.040;3.856;2023-06-26T11:20:42;11.02;;;3.72;;
33148;SDS011;19506;51.040;3.856;2023-06-26T11:23:08;18.55;;;5.22;;
33148;SDS011;19506;51.040;3.856;2023-06-26T11:25:37;16.52;;;4.18;;
33148;SDS011;19506;51.040;3.856;2023-06-26T11:28:03;16.25;;;4.13;;
33148;SDS011;19506;51.040;3.856;2023-06-26T11:30:30;14.82;;;4.55;;
33148;SDS011;19506;51.040;3.856;2023-06-26T11:33:06;9.60;;;3.30;;
33148;SDS011;19506;51.040;3.856;2023-06-26T11:35:33;9.15;;;3.05;;
33148;SDS011;19506;51.040;3.856;2023-06-26T11:37:59;9.55;;;3.53;;
33148;SDS011;19506;51.040;3.856;2023-06-26T11:40:30;11.85;;;3.38;;
33148;SDS011;19506;51.040;3.856;2023-06-26T11:43:03;14.57;;;4.00;;
33148;SDS011;19506;51.040;3.856;2023-06-26T11:45:29;15.85;;;4.15;;
33148;SDS011;19506;51.040;3.856;2023-06-26T11:47:56;9.50;;;4.05;;
33148;SDS011;19506;51.040;3.856;2023-06-26T11:50:22;7.60;;;2.78;;
33148;SDS011;19506;51.040;3.856;2023-06-26T11:52:58;8.02;;;3.25;;
33148;SDS011;19506;51.040;3.856;2023-06-26T11:55:24;10.40;;;2.75;;
33148;SDS011;19506;51.040;3.856;2023-06-26T11:57:55;7.88;;;2.53;;
33148;SDS011;19506;51.040;3.856;2023-06-26T12:00:22;6.82;;;2.50;;
33148;SDS011;19506;51.040;3.856;2023-06-26T12:02:48;7.10;;;2.33;;
33148;SDS011;19506;51.040;3.856;2023-06-26T12:05:17;10.90;;;2.72;;
33148;SDS011;19506;51.040;3.856;2023-06-26T12:07:45;6.35;;;2.67;;
33148;SDS011;19506;51.040;3.856;2023-06-26T12:10:12;16.40;;;2.70;;
33148;SDS011;19506;51.040;3.856;2023-06-26T12:12:39;8.55;;;2.83;;
33148;SDS011;19506;51.040;3.856;2023-06-26T12:15:06;8.65;;;2.20;;
33148;SDS011;19506;51.040;3.856;2023-06-26T12:17:33;11.80;;;2.55;;
33148;SDS011;19506;51.040;3.856;2023-06-26T12:20:02;9.23;;;2.08;;
33148;SDS011;19506;51.040;3.856;2023-06-26T12:22:34;7.18;;;2.67;;
33148;SDS011;19506;51.040;3.856;2023-06-26T12:25:00;10.35;;;2.70;;
33148;SDS011;19506;51.040;3.856;2023-06-26T12:27:26;4.57;;;2.15;;
33148;SDS011;19506;51.040;3.856;2023-06-26T12:29:54;6.25;;;2.00;;
33148;SDS011;19506;51.040;3.856;2023-06-26T12:32:23;10.15;;;2.35;;
33148;SDS011;19506;51.040;3.856;2023-06-26T12:34:50;8.50;;;2.25;;
33148;SDS011;19506;51.040;3.856;2023-06-26T12:37:16;6.22;;;2.20;;
33148;SDS011;19506;51.040;3.856;2023-06-26T12:42:13;7.65;;;1.92;;
33148;SDS011;19506;51.040;3.856;2023-06-26T12:44:40;5.25;;;2.00;;
33148;SDS011;19506;51.040;3.856;2023-06-26T12:47:06;11.43;;;2.03;;
33148;SDS011;19506;51.040;3.856;2023-06-26T12:51:59;11.25;;;2.30;;
33148;SDS011;19506;51.040;3.856;2023-06-26T12:54:26;11.20;;;2.47;;
33148;SDS011;19506;51.040;3.856;2023-06-26T12:56:52;12.52;;;1.83;;
33148;SDS011;19506;51.040;3.856;2023-06-26T12:59:18;8.88;;;1.83;;
33148;SDS011;19506;51.040;3.856;2023-06-26T13:01:44;4.50;;;2.05;;
33148;SDS011;19506;51.040;3.856;2023-06-26T13:04:09;5.45;;;1.83;;
33148;SDS011;19506;51.040;3.856;2023-06-26T13:06:36;8.45;;;2.08;;
33148;SDS011;19506;51.040;3.856;2023-06-26T13:09:02;5.00;;;1.80;;
33148;SDS011;19506;51.040;3.856;2023-06-26T13:11:31;6.80;;;1.90;;
33148;SDS011;19506;51.040;3.856;2023-06-26T13:13:57;9.60;;;2.50;;
33148;SDS011;19506;51.040;3.856;2023-06-26T13:16:23;6.80;;;2.00;;
33148;SDS011;19506;51.040;3.856;2023-06-26T13:18:49;10.15;;;2.67;;
33148;SDS011;19506;51.040;3.856;2023-06-26T13:21:14;7.30;;;1.83;;
33148;SDS011;19506;51.040;3.856;2023-06-26T13:23:42;3.75;;;1.65;;
33148;SDS011;19506;51.040;3.856;2023-06-26T13:26:07;11.52;;;1.95;;
33148;SDS011;19506;51.040;3.856;2023-06-26T13:28:33;6.10;;;2.45;;
33148;SDS011;19506;51.040;3.856;2023-06-26T13:30:59;8.82;;;2.30;;
33148;SDS011;19506;51.040;3.856;2023-06-26T13:33:24;5.93;;;2.28;;
33148;SDS011;19506;51.040;3.856;2023-06-26T13:35:51;9.15;;;2.60;;
33148;SDS011;19506;51.040;3.856;2023-06-26T13:38:19;7.18;;;2.00;;
33148;SDS011;19506;51.040;3.856;2023-06-26T13:40:54;6.28;;;2.00;;
33148;SDS011;19506;51.040;3.856;2023-06-26T13:43:24;6.75;;;1.55;;
33148;SDS011;19506;51.040;3.856;2023-06-26T13:45:50;7.85;;;2.47;;
33148;SDS011;19506;51.040;3.856;2023-06-26T13:48:15;8.55;;;2.20;;
33148;SDS011;19506;51.040;3.856;2023-06-26T13:50:41;3.92;;;2.08;;
33148;SDS011;19506;51.040;3.856;2023-06-26T13:53:07;8.93;;;2.55;;
33148;SDS011;19506;51.040;3.856;2023-06-26T13:55:33;4.35;;;1.88;;
33148;SDS011;19506;51.040;3.856;2023-06-26T13:58:00;6.30;;;2.55;;
33148;SDS011;19506;51.040;3.856;2023-06-26T14:00:30;5.75;;;2.10;;
33148;SDS011;19506;51.040;3.856;2023-06-26T14:02:58;6.47;;;1.67;;
33148;SDS011;19506;51.040;3.856;2023-06-26T14:05:31;5.65;;;2.28;;
33148;SDS011;19506;51.040;3.856;2023-06-26T14:08:04;6.88;;;1.80;;
33148;SDS011;19506;51.040;3.856;2023-06-26T14:10:30;7.65;;;2.33;;
33148;SDS011;19506;51.040;3.856;2023-06-26T14:12:58;6.03;;;1.85;;
33148;SDS011;19506;51.040;3.856;2023-06-26T14:15:24;6.40;;;2.40;;
33148;SDS011;19506;51.040;3.856;2023-06-26T14:17:49;12.63;;;2.47;;
33148;SDS011;19506;51.040;3.856;2023-06-26T14:20:16;15.63;;;2.45;;
33148;SDS011;19506;51.040;3.856;2023-06-26T14:22:42;25.52;;;4.00;;
33148;SDS011;19506;51.040;3.856;2023-06-26T14:25:12;8.55;;;2.15;;
33148;SDS011;19506;51.040;3.856;2023-06-26T14:27:39;13.07;;;2.97;;
33148;SDS011;19506;51.040;3.856;2023-06-26T14:30:05;9.82;;;2.97;;
33148;SDS011;19506;51.040;3.856;2023-06-26T14:32:32;18.63;;;2.95;;
33148;SDS011;19506;51.040;3.856;2023-06-26T14:34:58;10.88;;;2.45;;
33148;SDS011;19506;51.040;3.856;2023-06-26T14:37:24;8.32;;;2.25;;
33148;SDS011;19506;51.040;3.856;2023-06-26T14:39:51;11.07;;;2.17;;
33148;SDS011;19506;51.040;3.856;2023-06-26T14:42:16;7.05;;;2.58;;
33148;SDS011;19506;51.040;3.856;2023-06-26T14:44:42;11.35;;;2.15;;
33148;SDS011;19506;51.040;3.856;2023-06-26T14:47:08;5.55;;;1.88;;
33148;SDS011;19506;51.040;3.856;2023-06-26T14:49:34;6.03;;;2.13;;
33148;SDS011;19506;51.040;3.856;2023-06-26T14:51:59;17.02;;;2.75;;
33148;SDS011;19506;51.040;3.856;2023-06-26T14:54:25;15.30;;;2.45;;